sensor_id;sensor_type;location;lat;lon;timestamp;pressure;altitude;pressure_sealevel;temperature;humidity
30081;BME280;16902;50.816;12.828;2023-03-23T00:04:24;97004.38;;;11.76;100.00
30081;BME280;16902;50.816;12.828;2023-03-23T00:09:26;96990.50;;;11.89;100.00
30081;BME280;16902;50.816;12.828;2023-03-23T00:14:26;96993.28;;;12.00;100.00
30081;BME280;16902;50.816;12.828;2023-03-23T00:19:27;96987.97;;;12.20;100.00
30081;BME280;16902;50.816;12.828;2023-03-23T00:24:28;96997.56;;;12.33;100.00
30081;BME280;16902;50.816;12.828;2023-03-23T00:29:29;97001.50;;;12.42;100.00
30081;BME280;16902;50.816;12.828;2023-03-23T00:34:29;96987.81;;;12.47;100.00
30081;BME280;16902;50.816;12.828;2023-03-23T00:39:35;96985.19;;;12.47;100.00
30081;BME280;16902;50.816;12.828;2023-03-23T00:44:37;96982.59;;;12.47;100.00
30081;BME280;16902;50.816;12.828;2023-03-23T00:49:38;96973.59;;;12.43;100.00
30081;BME280;16902;50.816;12.828;2023-03-23T00:54:39;96957.78;;;12.31;100.00
30081;BME280;16902;50.816;12.828;2023-03-23T00:59:39;96953.69;;;12.42;100.00
30081;BME280;16902;50.816;12.828;2023-03-23T01:04:41;96945.28;;;12.40;100.00
30081;BME280;16902;50.816;12.828;2023-03-23T01:09:45;96942.69;;;12.40;100.00
30081;BME280;16902;50.816;12.828;2023-03-23T01:14:46;96943.59;;;12.52;100.00
30081;BME280;16902;50.816;12.828;2023-03-23T01:19:48;96942.28;;;12.68;100.00
30081;BME280;16902;50.816;12.828;2023-03-23T01:24:49;96926.72;;;12.79;100.00
30081;BME280;16902;50.816;12.828;2023-03-23T01:29:49;96926.84;;;12.91;100.00
30081;BME280;16902;50.816;12.828;2023-03-23T01:34:50;96930.59;;;12.95;100.00
30081;BME280;16902;50.816;12.828;2023-03-23T01:39:53;96917.19;;;12.92;100.00
30081;BME280;16902;50.816;12.828;2023-03-23T01:49:54;96928.69;;;12.84;100.00
30081;BME280;16902;50.816;12.828;2023-03-23T01:54:56;96926.06;;;12.84;100.00
30081;BME280;16902;50.816;12.828;2023-03-23T02:00:02;96926.88;;;12.84;100.00
30081;BME280;16902;50.816;12.828;2023-03-23T02:05:21;96922.91;;;12.75;100.00
30081;BME280;16902;50.816;12.828;2023-03-23T02:10:24;96911.25;;;12.78;100.00
30081;BME280;16902;50.816;12.828;2023-03-23T02:15:28;96905.09;;;12.91;100.00
30081;BME280;16902;50.816;12.828;2023-03-23T02:21:07;96914.25;;;12.81;100.00
30081;BME280;16902;50.816;12.828;2023-03-23T02:37:02;96910.00;;;12.62;100.00
30081;BME280;16902;50.816;12.828;2023-03-23T02:42:09;96900.69;;;12.66;100.00
30081;BME280;16902;50.816;12.828;2023-03-23T02:47:17;96890.53;;;12.58;100.00
30081;BME280;16902;50.816;12.828;2023-03-23T02:52:22;96886.97;;;12.52;100.00
30081;BME280;16902;50.816;12.828;2023-03-23T02:57:27;96886.38;;;12.50;100.00
30081;BME280;16902;50.816;12.828;2023-03-23T03:02:32;96870.38;;;12.40;100.00
30081;BME280;16902;50.816;12.828;2023-03-23T03:13:04;96875.03;;;12.38;100.00
30081;BME280;16902;50.816;12.828;2023-03-23T03:18:27;96868.78;;;12.39;100.00
30081;BME280;16902;50.816;12.828;2023-03-23T03:23:32;96867.16;;;12.45;100.00
30081;BME280;16902;50.816;12.828;2023-03-23T03:28:36;96870.31;;;12.47;100.00
30081;BME280;16902;50.816;12.828;2023-03-23T03:33:37;96876.63;;;12.39;100.00
30081;BME280;16902;50.816;12.828;2023-03-23T03:38:46;96871.28;;;12.27;100.00
30081;BME280;16902;50.816;12.828;2023-03-23T03:43:48;96860.16;;;12.14;100.00
30081;BME280;16902;50.816;12.828;2023-03-23T03:48:50;96868.66;;;12.27;100.00
30081;BME280;16902;50.816;12.828;2023-03-23T03:53:54;96854.97;;;12.32;100.00
30081;BME280;16902;50.816;12.828;2023-03-23T03:58:56;96851.00;;;12.29;100.00
30081;BME280;16902;50.816;12.828;2023-03-23T04:04:21;96853.47;;;12.18;100.00
30081;BME280;16902;50.816;12.828;2023-03-23T04:09:22;96850.28;;;12.16;100.00
30081;BME280;16902;50.816;12.828;2023-03-23T04:14:23;96854.34;;;12.12;100.00
30081;BME280;16902;50.816;12.828;2023-03-23T04:19:24;96846.44;;;12.18;100.00
30081;BME280;16902;50.816;12.828;2023-03-23T04:24:29;96847.44;;;12.24;100.00
30081;BME280;16902;50.816;12.828;2023-03-23T04:29:32;96846.19;;;12.26;100.00
30081;BME280;16902;50.816;12.828;2023-03-23T04:34:52;96841.38;;;12.30;100.00
30081;BME280;16902;50.816;12.828;2023-03-23T04:40:00;96848.59;;;12.28;100.00
30081;BME280;16902;50.816;12.828;2023-03-23T04:45:02;96842.38;;;12.29;100.00
30081;BME280;16902;50.816;12.828;2023-03-23T04:50:11;96854.81;;;12.27;100.00
30081;BME280;16902;50.816;12.828;2023-03-23T04:55:20;96850.00;;;12.30;100.00
30081;BME280;16902;50.816;12.828;2023-03-23T05:00:28;96853.13;;;12.39;100.00
30081;BME280;16902;50.816;12.828;2023-03-23T05:05:30;96848.28;;;12.43;100.00
30081;BME280;16902;50.816;12.828;2023-03-23T05:10:37;96850.63;;;12.51;100.00
30081;BME280;16902;50.816;12.828;2023-03-23T05:15:42;96854.28;;;12.68;100.00
30081;BME280;16902;50.816;12.828;2023-03-23T05:20:43;96853.94;;;12.83;100.00
30081;BME280;16902;50.816;12.828;2023-03-23T05:25:54;96859.41;;;12.81;100.00
30081;BME280;16902;50.816;12.828;2023-03-23T05:30:57;96870.19;;;12.85;100.00
30081;BME280;16902;50.816;12.828;2023-03-23T05:36:02;96869.03;;;12.81;100.00
30081;BME280;16902;50.816;12.828;2023-03-23T05:41:16;96859.03;;;12.78;100.00
30081;BME280;16902;50.816;12.828;2023-03-23T05:46:16;96859.56;;;12.86;100.00
30081;BME280;16902;50.816;12.828;2023-03-23T05:51:18;96870.94;;;12.92;100.00
30081;BME280;16902;50.816;12.828;2023-03-23T05:56:19;96860.94;;;13.07;100.00
30081;BME280;16902;50.816;12.828;2023-03-23T06:01:43;96866.69;;;13.16;100.00
30081;BME280;16902;50.816;12.828;2023-03-23T06:06:43;96872.19;;;13.08;100.00
30081;BME280;16902;50.816;12.828;2023-03-23T06:11:45;96872.25;;;13.01;100.00
30081;BME280;16902;50.816;12.828;2023-03-23T06:17:08;96891.47;;;12.89;100.00
30081;BME280;16902;50.816;12.828;2023-03-23T06:22:09;96897.91;;;12.86;100.00
30081;BME280;16902;50.816;12.828;2023-03-23T06:27:29;96907.06;;;12.95;100.00
30081;BME280;16902;50.816;12.828;2023-03-23T06:32:32;96907.09;;;13.13;100.00
30081;BME280;16902;50.816;12.828;2023-03-23T06:37:33;96907.56;;;13.29;100.00
30081;BME280;16902;50.816;12.828;2023-03-23T06:42:49;96904.53;;;13.32;100.00
30081;BME280;16902;50.816;12.828;2023-03-23T06:48:28;96914.06;;;13.45;100.00
30081;BME280;16902;50.816;12.828;2023-03-23T06:53:29;96915.00;;;13.50;100.00
30081;BME280;16902;50.816;12.828;2023-03-23T06:58:32;96919.84;;;13.65;100.00
30081;BME280;16902;50.816;12.828;2023-03-23T07:03:33;96923.69;;;13.62;100.00
30081;BME280;16902;50.816;12.828;2023-03-23T07:08:35;96926.53;;;13.43;100.00
30081;BME280;16902;50.816;12.828;2023-03-23T07:13:36;96930.25;;;13.35;100.00
30081;BME280;16902;50.816;12.828;2023-03-23T07:18:38;96937.88;;;13.36;100.00
30081;BME280;16902;50.816;12.828;2023-03-23T07:23:40;96935.69;;;13.33;100.00
30081;BME280;16902;50.816;12.828;2023-03-23T07:28:44;96933.16;;;13.27;100.00
30081;BME280;16902;50.816;12.828;2023-03-23T07:34:02;96936.72;;;13.07;100.00
30081;BME280;16902;50.816;12.828;2023-03-23T07:39:21;96947.66;;;12.73;100.00
30081;BME280;16902;50.816;12.828;2023-03-23T07:44:28;96952.03;;;12.54;100.00
30081;BME280;16902;50.816;12.828;2023-03-23T07:49:30;96945.00;;;12.54;100.00
30081;BME280;16902;50.816;12.828;2023-03-23T07:54:43;96954.69;;;12.97;100.00
30081;BME280;16902;50.816;12.828;2023-03-23T08:00:08;96965.03;;;13.35;100.00
30081;BME280;16902;50.816;12.828;2023-03-23T08:05:16;96964.88;;;12.80;100.00
30081;BME280;16902;50.816;12.828;2023-03-23T08:10:46;96971.97;;;12.03;100.00
30081;BME280;16902;50.816;12.828;2023-03-23T08:16:07;96967.31;;;11.61;100.00
30081;BME280;16902;50.816;12.828;2023-03-23T08:21:26;96972.97;;;11.51;100.00
30081;BME280;16902;50.816;12.828;2023-03-23T08:26:50;96972.97;;;11.44;100.00
30081;BME280;16902;50.816;12.828;2023-03-23T08:32:08;96972.38;;;11.36;100.00
30081;BME280;16902;50.816;12.828;2023-03-23T08:37:38;96974.19;;;11.42;100.00
30081;BME280;16902;50.816;12.828;2023-03-23T08:43:08;96965.72;;;11.53;100.00
30081;BME280;16902;50.816;12.828;2023-03-23T08:48:09;96970.50;;;11.63;100.00
30081;BME280;16902;50.816;12.828;2023-03-23T08:53:30;96966.84;;;11.83;100.00
30081;BME280;16902;50.816;12.828;2023-03-23T08:58:51;96977.31;;;12.22;100.00
30081;BME280;16902;50.816;12.828;2023-03-23T09:04:24;96980.78;;;12.47;100.00
30081;BME280;16902;50.816;12.828;2023-03-23T09:09:24;96972.13;;;12.53;100.00
30081;BME280;16902;50.816;12.828;2023-03-23T09:14:25;96977.94;;;12.80;100.00
30081;BME280;16902;50.816;12.828;2023-03-23T09:19:27;96988.66;;;12.97;100.00
30081;BME280;16902;50.816;12.828;2023-03-23T09:24:28;96981.56;;;13.04;100.00
30081;BME280;16902;50.816;12.828;2023-03-23T09:29:28;96981.38;;;13.31;100.00
30081;BME280;16902;50.816;12.828;2023-03-23T09:34:29;96979.06;;;13.59;100.00
30081;BME280;16902;50.816;12.828;2023-03-23T09:39:30;96987.34;;;13.75;100.00
30081;BME280;16902;50.816;12.828;2023-03-23T09:44:46;96980.44;;;13.62;100.00
30081;BME280;16902;50.816;12.828;2023-03-23T09:50:08;96987.34;;;13.75;100.00
30081;BME280;16902;50.816;12.828;2023-03-23T09:55:14;96991.56;;;13.76;100.00
30081;BME280;16902;50.816;12.828;2023-03-23T10:00:20;96997.44;;;13.89;100.00
30081;BME280;16902;50.816;12.828;2023-03-23T10:15:57;97023.72;;;13.58;100.00
30081;BME280;16902;50.816;12.828;2023-03-23T10:21:00;97018.22;;;13.66;100.00
30081;BME280;16902;50.816;12.828;2023-03-23T10:26:14;97027.50;;;13.62;100.00
30081;BME280;16902;50.816;12.828;2023-03-23T10:31:21;97006.97;;;14.02;100.00
30081;BME280;16902;50.816;12.828;2023-03-23T10:41:54;97012.72;;;13.93;100.00
30081;BME280;16902;50.816;12.828;2023-03-23T10:47:06;97015.19;;;13.69;100.00
30081;BME280;16902;50.816;12.828;2023-03-23T10:52:25;97018.16;;;13.54;100.00
30081;BME280;16902;50.816;12.828;2023-03-23T10:57:30;97000.56;;;13.61;100.00
30081;BME280;16902;50.816;12.828;2023-03-23T11:02:31;97024.69;;;13.45;100.00
30081;BME280;16902;50.816;12.828;2023-03-23T11:07:34;97033.34;;;13.39;100.00
30081;BME280;16902;50.816;12.828;2023-03-23T11:12:35;97011.66;;;13.38;100.00
30081;BME280;16902;50.816;12.828;2023-03-23T11:17:36;97042.38;;;13.18;100.00
30081;BME280;16902;50.816;12.828;2023-03-23T11:22:36;97035.59;;;13.10;100.00
30081;BME280;16902;50.816;12.828;2023-03-23T11:27:38;97024.41;;;13.28;100.00
30081;BME280;16902;50.816;12.828;2023-03-23T11:32:43;97025.50;;;13.14;100.00
30081;BME280;16902;50.816;12.828;2023-03-23T11:37:56;97029.06;;;12.95;100.00
30081;BME280;16902;50.816;12.828;2023-03-23T11:43:13;97028.72;;;13.16;100.00
30081;BME280;16902;50.816;12.828;2023-03-23T11:48:20;97025.50;;;13.14;100.00
30081;BME280;16902;50.816;12.828;2023-03-23T11:58:46;96998.59;;;13.75;100.00
30081;BME280;16902;50.816;12.828;2023-03-23T12:09:25;96999.78;;;13.79;100.00
30081;BME280;16902;50.816;12.828;2023-03-23T12:20:19;97011.03;;;13.98;100.00
30081;BME280;16902;50.816;12.828;2023-03-23T12:31:11;97010.00;;;14.18;100.00
30081;BME280;16902;50.816;12.828;2023-03-23T12:41:25;97006.59;;;14.47;100.00
30081;BME280;16902;50.816;12.828;2023-03-23T12:51:58;97024.41;;;13.90;100.00
30081;BME280;16902;50.816;12.828;2023-03-23T12:57:12;97021.28;;;13.81;100.00
30081;BME280;16902;50.816;12.828;2023-03-23T13:07:25;97020.25;;;14.19;100.00
30081;BME280;16902;50.816;12.828;2023-03-23T13:12:28;97008.28;;;14.42;100.00
30081;BME280;16902;50.816;12.828;2023-03-23T13:17:45;97012.47;;;14.12;100.00
30081;BME280;16902;50.816;12.828;2023-03-23T13:23:20;96992.63;;;14.53;100.00
30081;BME280;16902;50.816;12.828;2023-03-23T13:28:24;96998.91;;;14.64;100.00
30081;BME280;16902;50.816;12.828;2023-03-23T13:33:34;96998.72;;;14.77;100.00
30081;BME280;16902;50.816;12.828;2023-03-23T13:38:36;96997.38;;;14.26;100.00
30081;BME280;16902;50.816;12.828;2023-03-23T13:43:40;96979.50;;;13.93;100.00
30081;BME280;16902;50.816;12.828;2023-03-23T13:49:03;96974.16;;;14.48;100.00
30081;BME280;16902;50.816;12.828;2023-03-23T14:04:31;96958.19;;;16.76;100.00
30081;BME280;16902;50.816;12.828;2023-03-23T14:09:41;96967.31;;;15.36;100.00
30081;BME280;16902;50.816;12.828;2023-03-23T14:14:48;96961.59;;;14.80;100.00
30081;BME280;16902;50.816;12.828;2023-03-23T14:19:52;96970.81;;;14.83;100.00
30081;BME280;16902;50.816;12.828;2023-03-23T14:25:17;96963.94;;;14.58;100.00
30081;BME280;16902;50.816;12.828;2023-03-23T14:30:23;96943.13;;;14.45;100.00
30081;BME280;16902;50.816;12.828;2023-03-23T14:35:28;96962.88;;;14.18;100.00
30081;BME280;16902;50.816;12.828;2023-03-23T14:40:30;96965.44;;;14.06;100.00
30081;BME280;16902;50.816;12.828;2023-03-23T14:45:31;96964.94;;;13.97;100.00
30081;BME280;16902;50.816;12.828;2023-03-23T14:55:42;96966.53;;;13.98;100.00
30081;BME280;16902;50.816;12.828;2023-03-23T15:05:57;96979.34;;;13.88;100.00
30081;BME280;16902;50.816;12.828;2023-03-23T15:16:27;96983.13;;;13.74;100.00
30081;BME280;16902;50.816;12.828;2023-03-23T15:21:34;96987.06;;;13.65;100.00
30081;BME280;16902;50.816;12.828;2023-03-23T15:26:43;96997.81;;;13.56;100.00
30081;BME280;16902;50.816;12.828;2023-03-23T15:31:46;97014.06;;;13.40;100.00
30081;BME280;16902;50.816;12.828;2023-03-23T15:36:52;97015.72;;;13.34;100.00
30081;BME280;16902;50.816;12.828;2023-03-23T15:41:58;97022.09;;;13.13;100.00
30081;BME280;16902;50.816;12.828;2023-03-23T15:47:17;97032.78;;;12.80;100.00
30081;BME280;16902;50.816;12.828;2023-03-23T15:52:18;97030.06;;;12.69;100.00
30081;BME280;16902;50.816;12.828;2023-03-23T15:57:18;97032.69;;;12.69;100.00
30081;BME280;16902;50.816;12.828;2023-03-23T16:02:21;97034.31;;;12.25;100.00
30081;BME280;16902;50.816;12.828;2023-03-23T16:07:24;97028.75;;;12.08;100.00
30081;BME280;16902;50.816;12.828;2023-03-23T16:12:26;97024.47;;;11.49;100.00
30081;BME280;16902;50.816;12.828;2023-03-23T16:17:27;97018.44;;;11.62;100.00
30081;BME280;16902;50.816;12.828;2023-03-23T16:22:29;97015.41;;;11.85;100.00
30081;BME280;16902;50.816;12.828;2023-03-23T16:27:31;97028.00;;;12.01;100.00
30081;BME280;16902;50.816;12.828;2023-03-23T16:32:32;97019.50;;;12.12;100.00
30081;BME280;16902;50.816;12.828;2023-03-23T16:37:33;97014.28;;;12.19;100.00
30081;BME280;16902;50.816;12.828;2023-03-23T16:42:35;97016.50;;;12.15;100.00
30081;BME280;16902;50.816;12.828;2023-03-23T16:47:38;97024.50;;;12.20;100.00
30081;BME280;16902;50.816;12.828;2023-03-23T16:52:42;97027.94;;;12.14;100.00
30081;BME280;16902;50.816;12.828;2023-03-23T16:57:47;97040.19;;;12.07;100.00
30081;BME280;16902;50.816;12.828;2023-03-23T17:02:50;97046.88;;;11.96;100.00
30081;BME280;16902;50.816;12.828;2023-03-23T17:07:53;97058.91;;;11.97;100.00
30081;BME280;16902;50.816;12.828;2023-03-23T17:12:58;97045.72;;;11.86;100.00
30081;BME280;16902;50.816;12.828;2023-03-23T17:17:59;97038.69;;;11.73;100.00
30081;BME280;16902;50.816;12.828;2023-03-23T17:23:02;97041.53;;;11.38;100.00
30081;BME280;16902;50.816;12.828;2023-03-23T17:28:04;97043.94;;;11.06;100.00
30081;BME280;16902;50.816;12.828;2023-03-23T17:33:08;97048.53;;;10.78;100.00
30081;BME280;16902;50.816;12.828;2023-03-23T17:38:09;97053.09;;;10.63;100.00
30081;BME280;16902;50.816;12.828;2023-03-23T17:43:12;97052.66;;;10.39;100.00
30081;BME280;16902;50.816;12.828;2023-03-23T17:48:13;97045.16;;;10.16;100.00
30081;BME280;16902;50.816;12.828;2023-03-23T17:53:15;97042.47;;;9.96;100.00
30081;BME280;16902;50.816;12.828;2023-03-23T17:58:18;97039.72;;;9.70;100.00
30081;BME280;16902;50.816;12.828;2023-03-23T18:03:21;97052.47;;;9.58;100.00
30081;BME280;16902;50.816;12.828;2023-03-23T18:08:24;97051.22;;;9.54;100.00
30081;BME280;16902;50.816;12.828;2023-03-23T18:13:29;97062.06;;;9.58;100.00
30081;BME280;16902;50.816;12.828;2023-03-23T18:18:32;97056.97;;;9.77;100.00
30081;BME280;16902;50.816;12.828;2023-03-23T18:23:36;97048.03;;;9.93;100.00
30081;BME280;16902;50.816;12.828;2023-03-23T18:28:53;97042.16;;;10.19;100.00
30081;BME280;16902;50.816;12.828;2023-03-23T18:33:56;97043.38;;;10.98;100.00
30081;BME280;16902;50.816;12.828;2023-03-23T18:38:57;97042.28;;;11.72;100.00
30081;BME280;16902;50.816;12.828;2023-03-23T18:43:59;97034.63;;;11.97;100.00
30081;BME280;16902;50.816;12.828;2023-03-23T18:49:01;97046.44;;;12.06;100.00
30081;BME280;16902;50.816;12.828;2023-03-23T18:54:03;97037.44;;;11.95;100.00
30081;BME280;16902;50.816;12.828;2023-03-23T18:59:04;97037.44;;;11.89;100.00
30081;BME280;16902;50.816;12.828;2023-03-23T19:04:06;97030.47;;;11.82;100.00
30081;BME280;16902;50.816;12.828;2023-03-23T19:09:08;97043.88;;;11.93;100.00
30081;BME280;16902;50.816;12.828;2023-03-23T19:14:10;97051.47;;;12.01;100.00
30081;BME280;16902;50.816;12.828;2023-03-23T19:19:12;97049.28;;;11.91;100.00
30081;BME280;16902;50.816;12.828;2023-03-23T19:24:14;97048.91;;;11.88;100.00
30081;BME280;16902;50.816;12.828;2023-03-23T19:29:17;97049.69;;;11.88;100.00
30081;BME280;16902;50.816;12.828;2023-03-23T19:34:27;97042.22;;;11.98;100.00
30081;BME280;16902;50.816;12.828;2023-03-23T19:39:31;97043.44;;;12.09;100.00
30081;BME280;16902;50.816;12.828;2023-03-23T19:44:33;97045.84;;;12.04;100.00
30081;BME280;16902;50.816;12.828;2023-03-23T19:49:35;97035.03;;;11.94;100.00
30081;BME280;16902;50.816;12.828;2023-03-23T19:54:37;97047.50;;;11.85;100.00
30081;BME280;16902;50.816;12.828;2023-03-23T19:59:39;97054.13;;;11.81;100.00
30081;BME280;16902;50.816;12.828;2023-03-23T20:04:42;97055.53;;;11.90;100.00
30081;BME280;16902;50.816;12.828;2023-03-23T20:09:45;97050.53;;;11.82;100.00
30081;BME280;16902;50.816;12.828;2023-03-23T20:14:49;97052.91;;;11.83;100.00
30081;BME280;16902;50.816;12.828;2023-03-23T20:19:51;97053.50;;;11.79;100.00
30081;BME280;16902;50.816;12.828;2023-03-23T20:24:52;97049.09;;;11.73;100.00
30081;BME280;16902;50.816;12.828;2023-03-23T20:29:54;97043.69;;;11.68;100.00
30081;BME280;16902;50.816;12.828;2023-03-23T20:34:56;97047.31;;;11.67;100.00
30081;BME280;16902;50.816;12.828;2023-03-23T20:39:58;97046.72;;;11.65;100.00
30081;BME280;16902;50.816;12.828;2023-03-23T20:45:00;97046.09;;;11.69;100.00
30081;BME280;16902;50.816;12.828;2023-03-23T20:50:02;97057.91;;;11.78;100.00
30081;BME280;16902;50.816;12.828;2023-03-23T20:55:06;97054.53;;;11.85;100.00
30081;BME280;16902;50.816;12.828;2023-03-23T21:00:09;97047.50;;;11.85;100.00
30081;BME280;16902;50.816;12.828;2023-03-23T21:05:16;97055.91;;;11.87;100.00
30081;BME280;16902;50.816;12.828;2023-03-23T21:10:18;97057.94;;;11.72;100.00
30081;BME280;16902;50.816;12.828;2023-03-23T21:15:20;97057.34;;;11.76;100.00
30081;BME280;16902;50.816;12.828;2023-03-23T21:20:21;97039.06;;;11.76;100.00
30081;BME280;16902;50.816;12.828;2023-03-23T21:25:24;97044.28;;;11.76;100.00
30081;BME280;16902;50.816;12.828;2023-03-23T21:30:36;97034.69;;;11.70;100.00
30081;BME280;16902;50.816;12.828;2023-03-23T21:35:38;97029.06;;;11.60;100.00
30081;BME280;16902;50.816;12.828;2023-03-23T21:40:42;97026.50;;;11.47;100.00
30081;BME280;16902;50.816;12.828;2023-03-23T21:45:45;97017.69;;;11.48;100.00
30081;BME280;16902;50.816;12.828;2023-03-23T21:50:47;97015.06;;;11.48;100.00
30081;BME280;16902;50.816;12.828;2023-03-23T21:55:50;97007.06;;;11.43;100.00
30081;BME280;16902;50.816;12.828;2023-03-23T22:00:52;97002.84;;;11.42;100.00
30081;BME280;16902;50.816;12.828;2023-03-23T22:05:55;96992.03;;;11.38;100.00
30081;BME280;16902;50.816;12.828;2023-03-23T22:11:02;96986.19;;;11.49;100.00
30081;BME280;16902;50.816;12.828;2023-03-23T22:16:07;96995.47;;;11.32;100.00
30081;BME280;16902;50.816;12.828;2023-03-23T22:21:11;96986.63;;;11.26;100.00
30081;BME280;16902;50.816;12.828;2023-03-23T22:26:13;96985.03;;;11.19;100.00
30081;BME280;16902;50.816;12.828;2023-03-23T22:31:21;96973.59;;;11.33;100.00
30081;BME280;16902;50.816;12.828;2023-03-23T22:36:27;96969.00;;;11.28;100.00
30081;BME280;16902;50.816;12.828;2023-03-23T22:41:35;96957.94;;;11.40;100.00
30081;BME280;16902;50.816;12.828;2023-03-23T22:46:39;96952.75;;;11.26;100.00
30081;BME280;16902;50.816;12.828;2023-03-23T22:51:41;96949.97;;;11.15;100.00
30081;BME280;16902;50.816;12.828;2023-03-23T22:56:42;96949.97;;;11.15;100.00
30081;BME280;16902;50.816;12.828;2023-03-23T23:01:45;96940.00;;;10.98;100.00
30081;BME280;16902;50.816;12.828;2023-03-23T23:06:47;96924.75;;;10.82;100.00
30081;BME280;16902;50.816;12.828;2023-03-23T23:11:49;96910.16;;;10.61;100.00
30081;BME280;16902;50.816;12.828;2023-03-23T23:16:51;96903.34;;;10.53;100.00
30081;BME280;16902;50.816;12.828;2023-03-23T23:21:53;96905.38;;;10.45;100.00
30081;BME280;16902;50.816;12.828;2023-03-23T23:26:56;96889.94;;;10.50;100.00
30081;BME280;16902;50.816;12.828;2023-03-23T23:31:58;96883.31;;;10.47;100.00
30081;BME280;16902;50.816;12.828;2023-03-23T23:37:02;96873.09;;;10.39;100.00
30081;BME280;16902;50.816;12.828;2023-03-23T23:42:04;96876.88;;;10.23;100.00
30081;BME280;16902;50.816;12.828;2023-03-23T23:47:06;96865.47;;;10.18;100.00
30081;BME280;16902;50.816;12.828;2023-03-23T23:52:08;96858.06;;;10.15;100.00
30081;BME280;16902;50.816;12.828;2023-03-23T23:57:09;96857.25;;;9.94;100.00
